Time;durP1;ratioP1;P1;durP2;ratioP2;P2;SDS_P1;SDS_P2;PMS_P1;PMS_P2;Temp;Humidity;BMP_temperature;BMP_pressure;BME280_temperature;BME280_humidity;BME280_pressure;Samples;Min_cycle;Max_cycle;Signal;HPM_P1;HPM_P2
2021/03/04 00:00:21;;;;;;;23.23;20.83;;;9.60;71.00;;;;;;4981685;28;20219;-89
2021/03/04 00:02:47;;;;;;;25.53;20.87;;;9.70;70.80;;;;;;4981462;28;20183;-89
2021/03/04 00:05:14;;;;;;;23.17;20.93;;;9.70;70.50;;;;;;4981450;28;20334;-89
2021/03/04 00:07:39;;;;;;;21.27;19.07;;;9.70;70.80;;;;;;4981582;28;20206;-89
2021/03/04 00:10:08;;;;;;;21.53;19.23;;;9.70;70.10;;;;;;4981258;28;20251;-89
2021/03/04 00:12:33;;;;;;;21.97;19.27;;;9.60;70.70;;;;;;4979670;28;20236;-89
2021/03/04 00:14:59;;;;;;;21.57;19.40;;;9.70;70.30;;;;;;4994266;28;20175;-89
2021/03/04 00:17:25;;;;;;;23.20;18.43;;;9.70;70.40;;;;;;4979140;28;20202;-89
2021/03/04 00:19:50;;;;;;;21.43;19.13;;;9.60;70.50;;;;;;4981109;28;20226;-89
2021/03/04 00:22:16;;;;;;;25.50;19.90;;;9.60;70.40;;;;;;4981335;28;20199;-88
2021/03/04 00:24:42;;;;;;;21.00;18.73;;;9.60;70.90;;;;;;4980688;28;20186;-89
2021/03/04 00:27:07;;;;;;;22.23;19.80;;;9.50;71.30;;;;;;4980350;28;20241;-89
2021/03/04 00:29:33;;;;;;;24.27;19.93;;;9.40;71.10;;;;;;4979442;28;20249;-89
2021/03/04 00:31:59;;;;;;;23.13;20.10;;;9.50;71.00;;;;;;4979351;28;20214;-89
2021/03/04 00:34:25;;;;;;;22.40;20.13;;;9.60;70.70;;;;;;4980634;28;20647;-89
2021/03/04 00:36:51;;;;;;;23.10;20.07;;;9.60;70.50;;;;;;4980282;28;20697;-89
2021/03/04 00:39:16;;;;;;;23.60;20.93;;;9.50;70.50;;;;;;4979295;28;20266;-88
2021/03/04 00:41:42;;;;;;;23.37;20.20;;;9.40;70.80;;;;;;4980805;28;20190;-89
2021/03/04 00:44:08;;;;;;;22.23;19.77;;;9.40;71.30;;;;;;4980961;28;20646;-89
2021/03/04 00:46:34;;;;;;;23.63;21.10;;;9.30;71.30;;;;;;4981505;28;20183;-89
2021/03/04 00:49:00;;;;;;;24.83;22.07;;;9.30;71.00;;;;;;4980911;28;20234;-89
2021/03/04 00:51:27;;;;;;;23.70;20.83;;;9.20;71.10;;;;;;4979876;28;20210;-89
2021/03/04 00:53:52;;;;;;;21.73;19.40;;;9.30;71.10;;;;;;4980314;28;20193;-89
2021/03/04 00:56:18;;;;;;;22.40;20.03;;;9.40;70.60;;;;;;4978428;28;20195;-89
2021/03/04 00:58:43;;;;;;;21.37;19.27;;;9.40;70.60;;;;;;4981107;28;20187;-89
2021/03/04 01:01:09;;;;;;;21.33;19.07;;;9.50;70.40;;;;;;4984595;28;20186;-89
2021/03/04 01:03:35;;;;;;;26.27;20.77;;;9.50;70.20;;;;;;4983679;28;20191;-89
2021/03/04 01:06:00;;;;;;;22.00;19.67;;;9.50;69.80;;;;;;4983204;28;20238;-89
2021/03/04 01:08:26;;;;;;;26.20;20.63;;;9.50;70.00;;;;;;4984162;28;20193;-89
2021/03/04 01:10:52;;;;;;;21.67;19.37;;;9.50;70.40;;;;;;4984693;28;20682;-89
2021/03/04 01:13:18;;;;;;;22.00;19.40;;;9.50;70.70;;;;;;4984995;28;20195;-89
2021/03/04 01:15:44;;;;;;;22.97;20.57;;;9.60;69.50;;;;;;4984577;28;20247;-88
2021/03/04 01:18:10;;;;;;;21.30;18.97;;;9.60;68.90;;;;;;4985008;28;20733;-88
2021/03/04 01:20:36;;;;;;;23.53;20.40;;;9.70;68.70;;;;;;4984710;28;20200;-89
2021/03/04 01:23:02;;;;;;;23.80;21.30;;;9.70;68.50;;;;;;4984754;28;20171;-88
2021/03/04 01:25:28;;;;;;;23.60;21.00;;;9.70;68.70;;;;;;4984665;28;20205;-89
2021/03/04 01:27:53;;;;;;;22.93;20.70;;;9.60;69.00;;;;;;4983070;28;20263;-88
2021/03/04 01:30:39;;;;;;;23.50;19.70;;;9.50;69.30;;;;;;4984166;28;20195;-88
2021/03/04 01:33:05;;;;;;;23.73;21.00;;;9.40;69.50;;;;;;4999376;28;20203;-88
2021/03/04 01:35:31;;;;;;;23.03;20.63;;;9.40;69.30;;;;;;4984687;28;20182;-88
2021/03/04 01:37:57;;;;;;;24.67;20.07;;;9.40;69.50;;;;;;4985130;28;20185;-89
2021/03/04 01:40:23;;;;;;;24.10;21.17;;;9.40;69.70;;;;;;4985276;28;20639;-89
2021/03/04 01:42:52;;;;;;;25.27;22.07;;;9.40;69.50;;;;;;4985118;28;20187;-88
2021/03/04 01:45:18;;;;;;;28.53;21.70;;;9.30;69.50;;;;;;4983408;28;20183;-88
2021/03/04 01:47:50;;;;;;;24.33;21.77;;;9.30;69.20;;;;;;4984862;28;20195;-88
2021/03/04 01:50:18;;;;;;;26.73;22.23;;;9.20;70.20;;;;;;4984496;28;20238;-89
2021/03/04 01:52:44;;;;;;;29.03;21.83;;;9.10;70.20;;;;;;4984665;28;20203;-89
2021/03/04 01:55:11;;;;;;;25.97;21.97;;;8.90;70.50;;;;;;4999100;28;20187;-89
2021/03/04 01:57:38;;;;;;;26.47;22.47;;;8.90;71.30;;;;;;4984663;28;20640;-89
2021/03/04 02:00:06;;;;;;;27.03;22.90;;;8.90;71.00;;;;;;4984429;28;20246;-88
2021/03/04 02:02:31;;;;;;;25.80;22.67;;;8.80;72.00;;;;;;4984147;28;20175;-89
2021/03/04 02:04:57;;;;;;;25.30;22.53;;;8.80;72.30;;;;;;4984638;28;20187;-89
2021/03/04 02:07:45;;;;;;;26.73;22.77;;;8.70;72.50;;;;;;4984145;28;20222;-89
2021/03/04 02:10:21;;;;;;;25.70;22.83;;;8.70;72.40;;;;;;4982815;28;20293;-88
2021/03/04 02:13:00;;;;;;;28.60;22.90;;;8.70;72.70;;;;;;4983421;28;20187;-88
2021/03/04 02:15:35;;;;;;;24.90;21.87;;;8.70;72.50;;;;;;4983234;28;20206;-88
2021/03/04 02:18:04;;;;;;;28.33;21.73;;;8.70;72.40;;;;;;4983719;28;20210;-89
2021/03/04 02:20:36;;;;;;;30.20;21.40;;;8.80;72.70;;;;;;4983537;28;20195;-88
2021/03/04 02:23:25;;;;;;;26.00;21.83;;;8.70;72.40;;;;;;4983022;28;20670;-88
2021/03/04 02:26:05;;;;;;;26.53;21.50;;;8.70;72.30;;;;;;4983880;28;20190;-88
2021/03/04 02:28:32;;;;;;;26.40;21.53;;;8.70;72.30;;;;;;4983512;28;20174;-88
2021/03/04 02:31:03;;;;;;;25.97;22.03;;;8.60;72.30;;;;;;4982670;28;20206;-88
2021/03/04 02:33:30;;;;;;;27.63;21.63;;;8.60;72.30;;;;;;4982524;28;20179;-88
2021/03/04 02:35:59;;;;;;;23.80;21.20;;;8.60;72.40;;;;;;4983112;28;20206;-87
2021/03/04 02:38:27;;;;;;;32.13;21.07;;;8.60;72.30;;;;;;4983281;28;20193;-88
2021/03/04 02:40:54;;;;;;;26.27;20.93;;;8.50;73.00;;;;;;4983081;28;20678;-88
2021/03/04 02:43:23;;;;;;;23.17;19.53;;;8.50;72.10;;;;;;4982733;28;20179;-88
2021/03/04 02:45:50;;;;;;;22.47;19.10;;;8.40;72.20;;;;;;4983142;28;20210;-88
2021/03/04 02:48:18;;;;;;;22.53;19.70;;;8.40;72.10;;;;;;4983017;28;20179;-88
2021/03/04 02:50:49;;;;;;;22.73;18.33;;;8.40;72.00;;;;;;4982666;28;20191;-89
2021/03/04 02:53:16;;;;;;;21.53;19.00;;;8.40;71.90;;;;;;4981618;28;20183;-89
2021/03/04 02:55:43;;;;;;;25.00;17.30;;;8.30;71.80;;;;;;4983027;28;20183;-88
2021/03/04 02:58:10;;;;;;;20.93;18.10;;;8.30;72.10;;;;;;4982845;28;20233;-89
2021/03/04 03:00:37;;;;;;;19.27;17.27;;;8.30;71.90;;;;;;4982432;28;20701;-88
2021/03/04 03:03:07;;;;;;;19.67;16.77;;;8.20;72.00;;;;;;4982415;28;20697;-88
2021/03/04 03:05:35;;;;;;;19.63;16.10;;;8.20;71.60;;;;;;4981311;28;20175;-88
2021/03/04 03:08:03;;;;;;;19.33;15.97;;;8.30;70.90;;;;;;4997837;28;20179;-88
2021/03/04 03:10:29;;;;;;;16.70;14.77;;;8.20;71.00;;;;;;4982754;28;20206;-89
2021/03/04 03:12:57;;;;;;;19.63;14.83;;;8.20;71.20;;;;;;4982551;28;20210;-88
2021/03/04 03:15:25;;;;;;;17.57;14.27;;;8.20;70.90;;;;;;4997171;28;20250;-88
2021/03/04 03:17:51;;;;;;;19.50;15.13;;;8.10;70.90;;;;;;4982351;28;20171;-88
2021/03/04 03:20:19;;;;;;;17.67;14.50;;;8.10;70.80;;;;;;4982282;28;20221;-88
2021/03/04 03:22:46;;;;;;;20.83;15.03;;;8.00;70.90;;;;;;4981488;28;20182;-88
2021/03/04 03:25:13;;;;;;;18.63;14.93;;;8.10;70.60;;;;;;4982421;28;20238;-88
2021/03/04 03:27:40;;;;;;;16.87;14.50;;;8.10;70.60;;;;;;4981050;28;20186;-89
2021/03/04 03:30:09;;;;;;;17.73;15.87;;;8.00;71.00;;;;;;4982030;28;20225;-88
2021/03/04 03:32:34;;;;;;;17.63;14.90;;;8.10;70.80;;;;;;4982211;28;20225;-88
2021/03/04 03:35:04;;;;;;;16.53;14.20;;;8.10;70.80;;;;;;4996812;28;20677;-88
2021/03/04 03:37:31;;;;;;;19.43;15.23;;;8.10;70.40;;;;;;4982439;28;20175;-90
2021/03/04 03:39:57;;;;;;;19.73;15.70;;;8.10;70.40;;;;;;4981811;28;20191;-89
2021/03/04 03:42:24;;;;;;;17.33;15.27;;;8.00;70.30;;;;;;4982403;28;20213;-88
2021/03/04 03:44:52;;;;;;;19.37;15.90;;;8.00;70.50;;;;;;4982816;28;20190;-88
2021/03/04 03:47:19;;;;;;;17.93;15.50;;;8.00;70.40;;;;;;4982774;28;20194;-90
2021/03/04 03:49:46;;;;;;;19.30;16.43;;;8.00;70.90;;;;;;4997972;28;20195;-89
2021/03/04 03:52:13;;;;;;;19.67;16.97;;;8.00;70.60;;;;;;4984205;28;20214;-89
2021/03/04 03:54:40;;;;;;;19.10;17.10;;;7.90;70.90;;;;;;4982967;28;20211;-88
2021/03/04 03:57:06;;;;;;;22.93;17.73;;;7.90;71.20;;;;;;4996410;28;20203;-88
2021/03/04 03:59:34;;;;;;;19.90;16.70;;;7.90;71.40;;;;;;4983080;28;20211;-88
2021/03/04 04:02:01;;;;;;;20.17;16.63;;;7.90;71.50;;;;;;4982789;28;20183;-88
2021/03/04 04:04:27;;;;;;;20.57;17.50;;;7.90;71.40;;;;;;4982656;28;20179;-88
2021/03/04 04:06:54;;;;;;;20.23;17.40;;;7.80;71.90;;;;;;4981263;28;20206;-88
2021/03/04 04:09:20;;;;;;;19.60;17.17;;;7.80;72.20;;;;;;4983089;28;20203;-88
2021/03/04 04:11:46;;;;;;;26.90;18.27;;;7.80;72.10;;;;;;4982550;28;20203;-88
2021/03/04 04:14:11;;;;;;;21.70;18.43;;;7.80;72.20;;;;;;4982411;28;20197;-88
2021/03/04 04:16:37;;;;;;;24.40;19.30;;;7.80;72.50;;;;;;4963876;28;20198;-88
2021/03/04 04:19:03;;;;;;;23.77;19.07;;;7.80;72.60;;;;;;4982739;28;20198;-89
2021/03/04 04:21:30;;;;;;;24.00;20.00;;;7.80;72.70;;;;;;4998014;28;20187;-89
2021/03/04 04:23:56;;;;;;;25.80;19.77;;;7.80;72.60;;;;;;4998188;28;20266;-88
2021/03/04 04:26:22;;;;;;;24.63;20.13;;;7.80;72.40;;;;;;4982772;28;20183;-89
2021/03/04 04:28:48;;;;;;;24.63;19.57;;;7.80;72.30;;;;;;4982455;28;20199;-89
2021/03/04 04:31:14;;;;;;;24.43;20.50;;;7.80;72.20;;;;;;4982544;28;20209;-89
2021/03/04 04:33:40;;;;;;;26.03;20.53;;;7.80;72.20;;;;;;4983238;28;20191;-88
2021/03/04 04:36:06;;;;;;;21.80;19.37;;;7.80;72.00;;;;;;5002143;28;20185;-88
2021/03/04 04:38:32;;;;;;;23.20;20.03;;;7.90;71.40;;;;;;5001408;28;20203;-88
2021/03/04 04:40:58;;;;;;;23.60;18.90;;;7.90;70.90;;;;;;4986567;28;20209;-89
2021/03/04 04:43:24;;;;;;;23.33;18.93;;;7.90;70.70;;;;;;4986403;28;20179;-89
2021/03/04 04:45:49;;;;;;;23.00;18.67;;;7.90;70.50;;;;;;4985720;28;20658;-88
2021/03/04 04:48:15;;;;;;;21.30;18.60;;;8.00;70.10;;;;;;5000394;28;20178;-88
2021/03/04 04:50:41;;;;;;;22.13;18.07;;;8.00;69.90;;;;;;5001122;28;20198;-89
2021/03/04 04:53:06;;;;;;;22.77;17.53;;;8.00;69.90;;;;;;4986421;28;20258;-89
2021/03/04 04:55:32;;;;;;;23.70;17.97;;;7.90;70.30;;;;;;4986476;28;20242;-89
2021/03/04 04:57:59;;;;;;;23.10;17.93;;;7.90;70.50;;;;;;4985516;28;20737;-89
2021/03/04 05:00:24;;;;;;;23.70;18.27;;;7.90;70.30;;;;;;5000191;28;20219;-89
2021/03/04 05:02:50;;;;;;;25.80;18.77;;;7.80;70.60;;;;;;4999564;28;20247;-89
2021/03/04 05:05:16;;;;;;;23.57;16.97;;;7.90;70.30;;;;;;4986240;28;20218;-89
2021/03/04 05:07:41;;;;;;;20.97;17.70;;;8.00;69.50;;;;;;4986680;28;20218;-87
2021/03/04 05:10:09;;;;;;;20.50;15.80;;;8.00;69.40;;;;;;4986076;28;20218;-89
2021/03/04 05:12:35;;;;;;;19.90;16.20;;;8.00;69.40;;;;;;4986431;28;20206;-89
2021/03/04 05:15:00;;;;;;;21.23;15.60;;;8.10;69.60;;;;;;4985477;28;20186;-89
2021/03/04 05:17:26;;;;;;;20.23;16.47;;;8.10;69.90;;;;;;4986360;28;20186;-89
2021/03/04 05:19:52;;;;;;;19.67;16.80;;;8.10;68.90;;;;;;4986003;28;20289;-89
2021/03/04 05:22:18;;;;;;;19.93;16.50;;;8.10;68.50;;;;;;4986159;28;20292;-89
2021/03/04 05:24:43;;;;;;;17.33;15.57;;;8.20;68.60;;;;;;4985948;28;20187;-89
2021/03/04 05:27:09;;;;;;;17.63;15.53;;;8.10;68.20;;;;;;4985793;28;20183;-89
2021/03/04 05:29:35;;;;;;;19.60;15.50;;;8.10;68.40;;;;;;4984553;28;20224;-89
2021/03/04 05:32:00;;;;;;;20.70;15.03;;;8.20;68.10;;;;;;4985690;28;20214;-89
2021/03/04 05:34:26;;;;;;;20.93;16.37;;;8.30;68.00;;;;;;4985588;28;20175;-89
2021/03/04 05:36:52;;;;;;;22.20;15.73;;;8.30;67.20;;;;;;4986119;28;20282;-89
2021/03/04 05:39:18;;;;;;;18.47;14.87;;;8.30;67.10;;;;;;4985322;28;20230;-89
2021/03/04 05:41:43;;;;;;;20.13;15.37;;;8.30;67.50;;;;;;4985614;28;20183;-89
2021/03/04 05:44:10;;;;;;;18.87;15.77;;;8.30;68.50;;;;;;5001199;28;20265;-89
2021/03/04 05:46:36;;;;;;;14.33;12.83;;;8.30;67.70;;;;;;4985685;28;20183;-89
2021/03/04 05:49:03;;;;;;;16.87;14.57;;;8.20;68.40;;;;;;5001172;28;20273;-89
2021/03/04 05:51:36;;;;;;;19.33;14.83;;;8.10;69.00;;;;;;4985385;28;20258;-89
2021/03/04 05:54:05;;;;;;;18.87;15.90;;;8.00;69.40;;;;;;4985558;28;20183;-89
2021/03/04 05:56:31;;;;;;;19.53;16.10;;;8.00;69.60;;;;;;4984096;28;20239;-89
2021/03/04 05:58:59;;;;;;;19.13;15.93;;;8.00;69.70;;;;;;4985359;28;20225;-89
2021/03/04 06:01:25;;;;;;;20.37;17.37;;;8.00;70.30;;;;;;4985085;28;20191;-89
2021/03/04 06:03:51;;;;;;;20.97;17.77;;;7.90;70.60;;;;;;4984755;28;20222;-89
2021/03/04 06:06:17;;;;;;;19.03;16.77;;;7.90;70.80;;;;;;4965483;28;20251;-88
2021/03/04 06:08:43;;;;;;;25.87;18.93;;;7.90;71.00;;;;;;4965374;28;20207;-88
2021/03/04 06:11:10;;;;;;;22.90;18.73;;;8.00;71.00;;;;;;4965713;28;20227;-89
2021/03/04 06:13:36;;;;;;;20.20;17.33;;;7.80;71.90;;;;;;4965266;28;20546;-88
2021/03/04 06:16:02;;;;;;;24.53;18.40;;;7.90;72.10;;;;;;4965849;28;20715;-89
2021/03/04 06:18:44;;;;;;;24.00;18.97;;;7.90;72.10;;;;;;4983880;28;20587;-88
2021/03/04 06:21:36;;;;;;;23.97;19.67;;;7.70;72.90;;;;;;4985174;28;20262;-88
2021/03/04 06:24:11;;;;;;;24.20;19.27;;;7.80;72.60;;;;;;4985454;28;20205;-89
2021/03/04 06:26:37;;;;;;;24.33;19.93;;;7.80;72.60;;;;;;4986585;28;20203;-89
2021/03/04 06:29:17;;;;;;;25.93;20.07;;;7.70;73.00;;;;;;4987057;28;20214;-88
2021/03/04 06:31:44;;;;;;;22.07;18.97;;;7.70;73.10;;;;;;5000633;28;20214;-88
2021/03/04 06:34:17;;;;;;;26.13;19.53;;;7.70;73.20;;;;;;4986137;28;20186;-89
2021/03/04 06:37:03;;;;;;;22.93;18.60;;;7.70;72.80;;;;;;4986251;28;20190;-89
2021/03/04 06:39:47;;;;;;;22.27;18.50;;;7.70;73.00;;;;;;4986382;28;20205;-89
2021/03/04 06:42:14;;;;;;;23.90;19.73;;;7.80;72.80;;;;;;4985168;28;20225;-89
2021/03/04 06:44:44;;;;;;;21.27;19.00;;;7.70;73.20;;;;;;4986193;28;20183;-89
2021/03/04 06:47:11;;;;;;;23.80;19.63;;;7.60;73.30;;;;;;4985468;28;20175;-88
2021/03/04 06:49:41;;;;;;;26.00;21.67;;;7.60;73.20;;;;;;4984869;28;20234;-89
2021/03/04 06:52:08;;;;;;;26.40;20.93;;;7.50;74.30;;;;;;4983580;28;20566;-88
2021/03/04 06:54:34;;;;;;;28.00;22.63;;;7.50;73.80;;;;;;4985600;28;20179;-88
2021/03/04 06:57:13;;;;;;;28.10;22.20;;;7.40;74.30;;;;;;4983809;28;20218;-89
2021/03/04 06:59:40;;;;;;;30.13;21.50;;;7.60;74.00;;;;;;4983634;28;20215;-88
2021/03/04 07:02:07;;;;;;;26.73;22.20;;;7.50;73.70;;;;;;4983777;28;20716;-86
2021/03/04 07:04:33;;;;;;;27.20;20.50;;;7.50;74.40;;;;;;4983873;28;20275;-86
2021/03/04 07:07:00;;;;;;;26.10;20.63;;;7.60;74.00;;;;;;4983986;28;20214;-86
2021/03/04 07:09:27;;;;;;;26.83;20.60;;;7.50;74.20;;;;;;4983826;28;20214;-88
2021/03/04 07:11:54;;;;;;;26.47;20.33;;;7.40;74.70;;;;;;4986659;28;20211;-89
2021/03/04 07:14:20;;;;;;;23.27;19.47;;;7.40;74.80;;;;;;4985678;28;20179;-89
2021/03/04 07:16:47;;;;;;;24.50;19.60;;;7.40;74.80;;;;;;4984136;28;20179;-88
2021/03/04 07:19:15;;;;;;;24.00;17.90;;;7.50;73.70;;;;;;4983124;28;20195;-89
2021/03/04 07:21:46;;;;;;;22.53;19.27;;;7.60;73.30;;;;;;4983818;28;20183;-88
2021/03/04 07:24:12;;;;;;;20.60;16.73;;;7.70;73.50;;;;;;5000033;28;20183;-87
2021/03/04 07:26:38;;;;;;;24.43;17.83;;;7.80;71.90;;;;;;4984476;28;20210;-87
2021/03/04 07:29:08;;;;;;;19.20;17.10;;;8.00;71.90;;;;;;4971557;28;20214;-87
2021/03/04 07:31:36;;;;;;;19.07;17.07;;;8.10;71.00;;;;;;4983132;28;20290;-88
2021/03/04 07:34:02;;;;;;;21.50;17.20;;;8.30;70.50;;;;;;4981389;28;20188;-88
2021/03/04 07:36:29;;;;;;;21.77;17.07;;;8.30;70.10;;;;;;4964681;28;20188;-88
2021/03/04 07:38:57;;;;;;;21.13;17.87;;;8.30;70.20;;;;;;4962851;29;20683;-88
2021/03/04 07:41:34;;;;;;;19.10;17.20;;;8.40;69.90;;;;;;4964493;28;20544;-87
2021/03/04 07:44:00;;;;;;;21.47;16.37;;;8.30;70.20;;;;;;4963642;28;20164;-88
2021/03/04 07:46:38;;;;;;;23.33;16.50;;;8.30;70.20;;;;;;4964162;28;20179;-88
2021/03/04 07:49:08;;;;;;;21.63;15.80;;;8.50;69.40;;;;;;4963817;28;20210;-88
2021/03/04 07:51:47;;;;;;;19.10;15.60;;;8.50;69.20;;;;;;4964842;28;20229;-89
2021/03/04 07:54:15;;;;;;;20.30;16.37;;;8.60;68.70;;;;;;4964079;28;20176;-87
2021/03/04 07:56:42;;;;;;;19.17;17.17;;;8.60;68.90;;;;;;4964458;28;20180;-87
2021/03/04 07:59:12;;;;;;;21.00;16.90;;;8.60;69.70;;;;;;4963705;28;20212;-87
2021/03/04 08:01:39;;;;;;;23.00;16.63;;;8.60;69.60;;;;;;4968011;28;20210;-88
2021/03/04 08:04:04;;;;;;;18.70;16.70;;;8.50;70.60;;;;;;4985257;28;20190;-87
2021/03/04 08:06:30;;;;;;;21.60;16.37;;;8.40;70.50;;;;;;4984307;28;20198;-88
2021/03/04 08:08:56;;;;;;;19.70;15.87;;;8.30;70.30;;;;;;4983898;28;20183;-88
2021/03/04 08:11:27;;;;;;;21.20;15.47;;;8.40;70.10;;;;;;4998360;28;20203;-88
2021/03/04 08:13:53;;;;;;;23.67;17.43;;;8.50;69.40;;;;;;4995016;28;20215;-88
2021/03/04 08:16:19;;;;;;;19.70;15.67;;;8.50;70.30;;;;;;4963838;28;20183;-87
2021/03/04 08:18:58;;;;;;;21.57;17.00;;;8.50;69.30;;;;;;4977638;28;20182;-87
2021/03/04 08:21:25;;;;;;;20.63;16.07;;;8.50;68.70;;;;;;4964111;28;20186;-87
2021/03/04 08:23:52;;;;;;;20.87;16.63;;;8.40;69.80;;;;;;4983262;28;20204;-88
2021/03/04 08:26:26;;;;;;;24.30;15.93;;;8.40;69.80;;;;;;4973510;28;20183;-87
2021/03/04 08:29:10;;;;;;;18.43;16.27;;;8.50;69.30;;;;;;4983897;28;20246;-87
2021/03/04 08:31:48;;;;;;;19.03;15.00;;;8.60;68.70;;;;;;4974225;28;20267;-89
2021/03/04 08:34:13;;;;;;;17.43;14.83;;;8.90;67.30;;;;;;4963223;28;20172;-87
2021/03/04 08:36:43;;;;;;;20.90;15.53;;;9.10;66.80;;;;;;4965191;28;20191;-88
2021/03/04 08:39:10;;;;;;;27.63;16.13;;;9.20;65.30;;;;;;4964886;28;20196;-87
2021/03/04 08:41:36;;;;;;;20.03;15.60;;;9.30;66.30;;;;;;4964433;28;20194;-87
2021/03/04 08:44:17;;;;;;;19.87;15.37;;;9.40;63.60;;;;;;4966249;28;20206;-87
2021/03/04 08:46:48;;;;;;;17.60;14.43;;;9.60;63.50;;;;;;4989468;28;20687;-87
2021/03/04 08:49:18;;;;;;;19.30;14.60;;;9.60;63.20;;;;;;4989257;28;20221;-87
2021/03/04 08:51:44;;;;;;;16.93;14.50;;;9.70;63.60;;;;;;4983217;28;20213;-87
2021/03/04 08:54:29;;;;;;;17.93;14.13;;;9.90;62.50;;;;;;4984129;28;20186;-89
2021/03/04 08:57:02;;;;;;;17.47;14.30;;;10.00;61.70;;;;;;4973029;28;20193;-87
2021/03/04 08:59:29;;;;;;;20.17;13.60;;;10.10;61.10;;;;;;4983192;28;20226;-88
2021/03/04 09:01:55;;;;;;;15.70;12.80;;;10.20;59.00;;;;;;4998631;28;20637;-87
2021/03/04 09:04:23;;;;;;;17.70;12.90;;;10.40;58.00;;;;;;4982937;28;20566;-87
2021/03/04 09:06:49;;;;;;;18.03;12.03;;;10.50;58.90;;;;;;4997013;28;20206;-87
2021/03/04 09:09:29;;;;;;;17.43;13.20;;;10.70;55.90;;;;;;4983397;28;20680;-88
2021/03/04 09:11:56;;;;;;;20.27;12.00;;;10.70;57.50;;;;;;4982158;28;20217;-88
2021/03/04 09:14:33;;;;;;;16.13;12.33;;;10.90;54.80;;;;;;4983110;28;20270;-88
2021/03/04 09:17:00;;;;;;;13.73;11.00;;;11.10;54.70;;;;;;4983732;28;20194;-88
2021/03/04 09:19:33;;;;;;;16.67;11.80;;;11.00;53.90;;;;;;4983780;28;20289;-88
2021/03/04 09:22:04;;;;;;;15.97;10.97;;;11.20;53.60;;;;;;4985268;28;20266;-89
2021/03/04 09:24:32;;;;;;;14.77;11.77;;;11.40;53.50;;;;;;5001403;28;20271;-87
2021/03/04 09:27:01;;;;;;;19.73;10.60;;;11.50;51.90;;;;;;4985579;28;20618;-88
2021/03/04 09:29:27;;;;;;;20.30;12.27;;;11.60;53.90;;;;;;4989377;28;20257;-87
2021/03/04 09:31:54;;;;;;;17.40;10.90;;;11.70;52.40;;;;;;4986861;28;20270;-88
2021/03/04 09:34:36;;;;;;;15.57;10.67;;;11.70;50.30;;;;;;5001037;28;20195;-90
2021/03/04 09:37:06;;;;;;;19.40;11.20;;;11.90;49.70;;;;;;4986420;28;20189;-87
2021/03/04 09:39:47;;;;;;;17.00;10.73;;;11.80;49.30;;;;;;4980862;28;20203;-88
2021/03/04 09:42:20;;;;;;;13.80;10.50;;;11.90;50.20;;;;;;4983973;28;20197;-87
2021/03/04 09:44:55;;;;;;;17.30;11.00;;;12.10;48.90;;;;;;4974337;28;20265;-88
2021/03/04 09:47:23;;;;;;;14.77;10.47;;;12.20;48.60;;;;;;4980628;28;20196;-87
2021/03/04 09:49:50;;;;;;;15.07;11.23;;;12.40;46.60;;;;;;4983925;28;20211;-87
2021/03/04 09:52:22;;;;;;;16.27;11.20;;;12.50;47.50;;;;;;5000548;28;20242;-87
2021/03/04 09:54:48;;;;;;;15.57;10.67;;;12.60;47.00;;;;;;4983776;28;20183;-87
2021/03/04 09:57:19;;;;;;;13.73;11.20;;;12.90;46.50;;;;;;4987173;28;20293;-87
2021/03/04 09:59:48;;;;;;;20.33;12.33;;;13.00;48.30;;;;;;4986394;28;20231;-87
2021/03/04 10:02:15;;;;;;;13.43;10.60;;;12.90;46.80;;;;;;4985952;28;20195;-86
2021/03/04 10:05:02;;;;;;;16.80;11.07;;;12.80;47.60;;;;;;4985247;28;20191;-88
2021/03/04 10:07:30;;;;;;;12.27;10.80;;;12.80;47.00;;;;;;5001728;28;20195;-87
2021/03/04 10:09:57;;;;;;;12.70;10.20;;;12.60;48.30;;;;;;5001029;28;20219;-87
2021/03/04 10:12:23;;;;;;;13.13;11.07;;;12.80;47.70;;;;;;5000848;28;20219;-88
2021/03/04 10:14:50;;;;;;;16.23;11.97;;;12.60;48.60;;;;;;4985202;28;20191;-88
2021/03/04 10:17:17;;;;;;;14.87;11.07;;;12.70;47.80;;;;;;4984628;28;20195;-88
2021/03/04 10:19:43;;;;;;;15.10;11.77;;;12.50;49.40;;;;;;4999657;28;20765;-87
2021/03/04 10:22:10;;;;;;;18.17;12.13;;;12.70;48.50;;;;;;4985342;28;20228;-88
2021/03/04 10:24:36;;;;;;;14.83;10.77;;;13.00;48.50;;;;;;4980488;28;20192;-89
2021/03/04 10:27:02;;;;;;;15.70;10.73;;;13.20;46.20;;;;;;4995191;28;20187;-87
2021/03/04 10:29:29;;;;;;;19.73;10.63;;;13.20;47.60;;;;;;4985410;28;20210;-88
2021/03/04 10:31:56;;;;;;;18.67;11.90;;;13.30;46.70;;;;;;4984624;28;20220;-87
2021/03/04 10:34:23;;;;;;;13.67;10.47;;;13.30;47.20;;;;;;4985010;28;20187;-88
2021/03/04 10:36:49;;;;;;;14.23;10.10;;;13.30;45.80;;;;;;4986299;28;20190;-87
2021/03/04 10:39:16;;;;;;;18.50;10.93;;;13.40;46.70;;;;;;4984984;28;20214;-88
2021/03/04 10:41:46;;;;;;;16.80;10.07;;;13.20;47.40;;;;;;4985740;28;20194;-87
2021/03/04 10:44:12;;;;;;;15.93;10.30;;;13.10;47.70;;;;;;4982691;28;20219;-87
2021/03/04 10:46:39;;;;;;;12.47;10.30;;;13.20;46.50;;;;;;4987668;28;20195;-87
2021/03/04 10:49:05;;;;;;;15.87;11.03;;;13.10;47.40;;;;;;4958801;28;20929;-87
2021/03/04 10:51:32;;;;;;;13.80;10.03;;;13.00;47.80;;;;;;4982797;28;20695;-87
2021/03/04 10:53:57;;;;;;;13.20;10.20;;;13.00;47.80;;;;;;5001487;28;20223;-87
2021/03/04 10:56:23;;;;;;;12.30;9.40;;;12.90;48.30;;;;;;4976608;28;20711;-87
2021/03/04 10:58:50;;;;;;;16.33;10.70;;;12.80;49.20;;;;;;4981910;28;20654;-87
2021/03/04 11:01:15;;;;;;;16.70;9.63;;;13.10;49.20;;;;;;5000000;28;20234;-88
2021/03/04 11:03:41;;;;;;;13.40;10.47;;;13.30;47.50;;;;;;4981887;28;20207;-88
2021/03/04 11:06:07;;;;;;;22.83;10.83;;;13.40;47.10;;;;;;4982710;28;20183;-87
2021/03/04 11:08:33;;;;;;;16.63;10.50;;;13.40;48.00;;;;;;4983287;28;20186;-87
2021/03/04 11:10:59;;;;;;;14.33;9.40;;;13.60;49.00;;;;;;4987126;28;20212;-89
2021/03/04 11:13:25;;;;;;;14.33;10.50;;;13.70;45.80;;;;;;4975871;28;20204;-87
2021/03/04 11:15:50;;;;;;;21.50;11.13;;;13.70;46.70;;;;;;4982575;28;20292;-88
2021/03/04 11:18:16;;;;;;;16.33;9.83;;;13.90;47.10;;;;;;4984044;28;20251;-88
2021/03/04 11:20:42;;;;;;;15.30;12.07;;;14.30;45.20;;;;;;4981429;28;20570;-89
2021/03/04 11:23:08;;;;;;;13.80;10.10;;;14.30;46.10;;;;;;4981700;28;20637;-87
2021/03/04 11:25:34;;;;;;;16.87;11.10;;;14.30;46.00;;;;;;4975897;28;20210;-88
2021/03/04 11:28:00;;;;;;;13.40;9.77;;;14.20;45.00;;;;;;4980377;28;20224;-88
2021/03/04 11:30:25;;;;;;;13.97;10.27;;;14.20;45.80;;;;;;4998242;28;20249;-88
2021/03/04 11:32:51;;;;;;;19.27;10.10;;;14.20;45.90;;;;;;4984146;28;20232;-88
2021/03/04 11:35:17;;;;;;;16.70;10.83;;;13.90;46.40;;;;;;4967814;28;20240;-88
2021/03/04 11:37:43;;;;;;;15.53;10.63;;;13.90;46.80;;;;;;4994820;28;20197;-89
2021/03/04 11:40:09;;;;;;;15.50;10.23;;;14.00;48.20;;;;;;4967567;28;20237;-88
2021/03/04 11:42:34;;;;;;;15.17;9.83;;;14.20;47.20;;;;;;4980035;28;20221;-87
2021/03/04 11:45:00;;;;;;;15.60;11.20;;;14.10;46.40;;;;;;4978312;28;20199;-89
2021/03/04 11:47:26;;;;;;;18.53;11.23;;;14.20;46.80;;;;;;4971635;28;20202;-88
2021/03/04 11:49:53;;;;;;;15.77;10.80;;;14.10;46.70;;;;;;4981226;28;20205;-88
2021/03/04 11:52:19;;;;;;;14.60;10.20;;;14.20;47.20;;;;;;4981256;28;20285;-88
2021/03/04 11:54:45;;;;;;;20.17;13.37;;;14.50;45.90;;;;;;4981970;28;20182;-87
2021/03/04 11:57:11;;;;;;;18.07;11.23;;;14.70;45.50;;;;;;4978981;28;20196;-88
2021/03/04 11:59:36;;;;;;;19.50;10.67;;;14.70;44.00;;;;;;4981000;28;20221;-88
2021/03/04 12:02:03;;;;;;;20.87;11.13;;;14.90;43.90;;;;;;4980297;28;20280;-88
2021/03/04 12:04:29;;;;;;;13.63;10.70;;;15.20;43.30;;;;;;4979889;28;20777;-88
2021/03/04 12:06:55;;;;;;;15.50;9.97;;;15.60;42.30;;;;;;4978329;28;20681;-89
2021/03/04 12:09:21;;;;;;;21.03;14.47;;;15.50;41.60;;;;;;4980922;28;20221;-88
2021/03/04 12:11:47;;;;;;;15.30;10.03;;;15.50;41.70;;;;;;4974802;28;20298;-88
2021/03/04 12:14:14;;;;;;;13.37;10.13;;;15.40;42.50;;;;;;4979815;28;20191;-88
2021/03/04 12:16:39;;;;;;;17.17;10.53;;;15.50;41.80;;;;;;4998476;28;20201;-87
2021/03/04 12:19:05;;;;;;;16.63;10.13;;;15.60;41.00;;;;;;4981741;28;20215;-88
2021/03/04 12:21:31;;;;;;;13.57;10.20;;;15.70;40.40;;;;;;4980448;28;20190;-88
2021/03/04 12:23:56;;;;;;;17.40;11.30;;;15.60;42.50;;;;;;4972478;28;20191;-88
2021/03/04 12:26:22;;;;;;;12.70;10.33;;;15.60;41.30;;;;;;4979742;28;20601;-88
2021/03/04 12:28:48;;;;;;;19.77;10.10;;;15.50;42.30;;;;;;4980580;28;20196;-88
2021/03/04 12:31:13;;;;;;;15.60;9.40;;;15.70;41.00;;;;;;4980579;28;20192;-88
2021/03/04 12:33:39;;;;;;;14.73;9.60;;;15.50;40.70;;;;;;4979627;28;20194;-88
2021/03/04 12:36:05;;;;;;;12.60;9.23;;;15.60;41.30;;;;;;4978291;28;20646;-89